sensor_id;sensor_type;location;lat;lon;timestamp;temperature;humidity
13049;DHT22;6591;51.446;5.404;2022-07-06T00:01:19;12.30;90.00
13049;DHT22;6591;51.446;5.404;2022-07-06T00:03:47;12.80;90.20
13049;DHT22;6591;51.446;5.404;2022-07-06T00:06:20;12.70;90.30
13049;DHT22;6591;51.446;5.404;2022-07-06T00:08:47;12.70;90.50
13049;DHT22;6591;51.446;5.404;2022-07-06T00:11:15;12.60;90.70
13049;DHT22;6591;51.446;5.404;2022-07-06T00:13:42;12.60;91.10
13049;DHT22;6591;51.446;5.404;2022-07-06T00:16:09;12.60;91.20
13049;DHT22;6591;51.446;5.404;2022-07-06T00:18:36;12.50;91.30
13049;DHT22;6591;51.446;5.404;2022-07-06T00:21:03;12.50;91.50
13049;DHT22;6591;51.446;5.404;2022-07-06T00:23:31;12.40;91.50
13049;DHT22;6591;51.446;5.404;2022-07-06T00:25:59;13.60;92.10
13049;DHT22;6591;51.446;5.404;2022-07-06T00:28:28;13.50;92.40
13049;DHT22;6591;51.446;5.404;2022-07-06T00:30:55;12.40;92.20
13049;DHT22;6591;51.446;5.404;2022-07-06T00:33:23;12.30;92.20
13049;DHT22;6591;51.446;5.404;2022-07-06T00:35:50;12.20;92.30
13049;DHT22;6591;51.446;5.404;2022-07-06T00:38:17;12.20;92.40
13049;DHT22;6591;51.446;5.404;2022-07-06T00:40:44;12.20;92.60
13049;DHT22;6591;51.446;5.404;2022-07-06T00:43:12;12.10;92.90
13049;DHT22;6591;51.446;5.404;2022-07-06T00:45:39;12.00;93.00
13049;DHT22;6591;51.446;5.404;2022-07-06T00:48:06;12.00;93.30
13049;DHT22;6591;51.446;5.404;2022-07-06T00:50:33;12.00;93.40
13049;DHT22;6591;51.446;5.404;2022-07-06T00:53:03;11.90;93.80
13049;DHT22;6591;51.446;5.404;2022-07-06T00:55:37;13.50;94.60
13049;DHT22;6591;51.446;5.404;2022-07-06T00:58:09;12.40;94.50
13049;DHT22;6591;51.446;5.404;2022-07-06T01:00:36;11.80;94.50
13049;DHT22;6591;51.446;5.404;2022-07-06T01:03:05;11.80;94.70
13049;DHT22;6591;51.446;5.404;2022-07-06T01:05:32;11.70;95.00
13049;DHT22;6591;51.446;5.404;2022-07-06T01:07:59;11.70;95.30
13049;DHT22;6591;51.446;5.404;2022-07-06T01:10:27;11.70;95.50
13049;DHT22;6591;51.446;5.404;2022-07-06T01:12:56;11.60;95.70
13049;DHT22;6591;51.446;5.404;2022-07-06T01:15:25;12.60;96.20
13049;DHT22;6591;51.446;5.404;2022-07-06T01:17:54;11.80;96.40
13049;DHT22;6591;51.446;5.404;2022-07-06T01:20:29;11.50;96.10
13049;DHT22;6591;51.446;5.404;2022-07-06T01:22:59;11.50;96.40
13049;DHT22;6591;51.446;5.404;2022-07-06T01:25:26;11.50;96.70
13049;DHT22;6591;51.446;5.404;2022-07-06T01:27:54;11.50;96.70
13049;DHT22;6591;51.446;5.404;2022-07-06T01:30:21;11.40;96.80
13049;DHT22;6591;51.446;5.404;2022-07-06T01:32:48;11.40;97.10
13049;DHT22;6591;51.446;5.404;2022-07-06T01:35:15;11.40;97.30
13049;DHT22;6591;51.446;5.404;2022-07-06T01:37:43;12.90;97.90
13049;DHT22;6591;51.446;5.404;2022-07-06T01:40:11;11.40;97.70
13049;DHT22;6591;51.446;5.404;2022-07-06T01:42:40;11.30;97.90
13049;DHT22;6591;51.446;5.404;2022-07-06T01:45:08;11.30;98.10
13049;DHT22;6591;51.446;5.404;2022-07-06T01:47:37;11.30;98.30
13049;DHT22;6591;51.446;5.404;2022-07-06T01:50:08;13.10;98.90
13049;DHT22;6591;51.446;5.404;2022-07-06T01:52:41;11.30;98.80
13049;DHT22;6591;51.446;5.404;2022-07-06T01:55:08;11.30;98.70
13049;DHT22;6591;51.446;5.404;2022-07-06T01:57:37;11.30;98.90
13049;DHT22;6591;51.446;5.404;2022-07-06T02:00:07;11.30;99.00
13049;DHT22;6591;51.446;5.404;2022-07-06T02:02:44;11.20;99.10
13049;DHT22;6591;51.446;5.404;2022-07-06T02:05:11;11.30;99.10
13049;DHT22;6591;51.446;5.404;2022-07-06T02:07:38;12.20;99.50
13049;DHT22;6591;51.446;5.404;2022-07-06T02:10:08;13.10;99.90
13049;DHT22;6591;51.446;5.404;2022-07-06T02:12:35;11.20;99.90
13049;DHT22;6591;51.446;5.404;2022-07-06T02:15:02;13.10;99.90
13049;DHT22;6591;51.446;5.404;2022-07-06T02:17:29;11.20;99.80
13049;DHT22;6591;51.446;5.404;2022-07-06T02:19:56;13.40;99.90
13049;DHT22;6591;51.446;5.404;2022-07-06T02:22:23;13.40;99.90
13049;DHT22;6591;51.446;5.404;2022-07-06T02:24:51;11.20;99.90
13049;DHT22;6591;51.446;5.404;2022-07-06T02:27:22;11.20;99.90
13049;DHT22;6591;51.446;5.404;2022-07-06T02:29:49;11.20;99.90
13049;DHT22;6591;51.446;5.404;2022-07-06T02:32:18;13.50;99.90
13049;DHT22;6591;51.446;5.404;2022-07-06T02:34:46;12.50;99.90
13049;DHT22;6591;51.446;5.404;2022-07-06T02:37:13;11.20;99.90
13049;DHT22;6591;51.446;5.404;2022-07-06T02:39:40;9.90;99.90
13049;DHT22;6591;51.446;5.404;2022-07-06T02:42:08;11.20;99.90
13049;DHT22;6591;51.446;5.404;2022-07-06T02:44:36;11.20;99.90
13049;DHT22;6591;51.446;5.404;2022-07-06T02:47:03;11.10;99.90
13049;DHT22;6591;51.446;5.404;2022-07-06T02:49:31;11.10;99.90
13049;DHT22;6591;51.446;5.404;2022-07-06T02:51:57;12.20;99.90
13049;DHT22;6591;51.446;5.404;2022-07-06T02:54:25;12.70;99.90
13049;DHT22;6591;51.446;5.404;2022-07-06T02:56:52;11.10;99.90
13049;DHT22;6591;51.446;5.404;2022-07-06T02:59:20;11.10;99.90
13049;DHT22;6591;51.446;5.404;2022-07-06T03:01:48;11.10;99.90
13049;DHT22;6591;51.446;5.404;2022-07-06T03:04:16;11.10;99.90
13049;DHT22;6591;51.446;5.404;2022-07-06T03:06:44;11.10;99.90
13049;DHT22;6591;51.446;5.404;2022-07-06T03:09:11;11.10;99.90
13049;DHT22;6591;51.446;5.404;2022-07-06T03:11:39;11.10;99.90
13049;DHT22;6591;51.446;5.404;2022-07-06T03:14:07;11.10;99.90
13049;DHT22;6591;51.446;5.404;2022-07-06T03:16:37;12.30;99.90
13049;DHT22;6591;51.446;5.404;2022-07-06T03:19:04;13.20;99.90
13049;DHT22;6591;51.446;5.404;2022-07-06T03:21:31;11.10;99.90
13049;DHT22;6591;51.446;5.404;2022-07-06T03:23:59;12.30;99.90
13049;DHT22;6591;51.446;5.404;2022-07-06T03:26:26;11.70;99.90
13049;DHT22;6591;51.446;5.404;2022-07-06T03:28:54;11.10;99.90
13049;DHT22;6591;51.446;5.404;2022-07-06T03:31:21;11.20;99.90
13049;DHT22;6591;51.446;5.404;2022-07-06T03:33:49;11.20;99.90
13049;DHT22;6591;51.446;5.404;2022-07-06T03:36:18;11.20;99.90
13049;DHT22;6591;51.446;5.404;2022-07-06T03:38:46;11.20;99.90
13049;DHT22;6591;51.446;5.404;2022-07-06T03:41:13;12.30;99.90
13049;DHT22;6591;51.446;5.404;2022-07-06T03:43:43;13.30;99.90
13049;DHT22;6591;51.446;5.404;2022-07-06T03:46:11;13.50;99.90
13049;DHT22;6591;51.446;5.404;2022-07-06T03:48:38;11.30;99.90
13049;DHT22;6591;51.446;5.404;2022-07-06T03:51:07;11.30;99.90
13049;DHT22;6591;51.446;5.404;2022-07-06T03:53:34;11.30;99.90
13049;DHT22;6591;51.446;5.404;2022-07-06T03:56:01;11.30;99.90
13049;DHT22;6591;51.446;5.404;2022-07-06T03:58:48;11.30;99.90
13049;DHT22;6591;51.446;5.404;2022-07-06T04:01:17;11.40;99.90
13049;DHT22;6591;51.446;5.404;2022-07-06T04:03:44;12.40;99.90
13049;DHT22;6591;51.446;5.404;2022-07-06T04:06:12;11.40;99.90
13049;DHT22;6591;51.446;5.404;2022-07-06T04:08:40;11.40;99.90
13049;DHT22;6591;51.446;5.404;2022-07-06T04:11:10;11.50;99.90
13049;DHT22;6591;51.446;5.404;2022-07-06T04:13:37;12.60;99.90
13049;DHT22;6591;51.446;5.404;2022-07-06T04:16:07;11.60;99.90
13049;DHT22;6591;51.446;5.404;2022-07-06T04:18:34;12.50;99.90
13049;DHT22;6591;51.446;5.404;2022-07-06T04:21:03;11.60;99.90
13049;DHT22;6591;51.446;5.404;2022-07-06T04:23:34;11.70;99.90
13049;DHT22;6591;51.446;5.404;2022-07-06T04:26:03;12.60;99.90
13049;DHT22;6591;51.446;5.404;2022-07-06T04:28:33;13.30;99.90
13049;DHT22;6591;51.446;5.404;2022-07-06T04:31:00;11.80;99.90
13049;DHT22;6591;51.446;5.404;2022-07-06T04:33:27;11.80;99.90
13049;DHT22;6591;51.446;5.404;2022-07-06T04:35:54;11.80;99.90
13049;DHT22;6591;51.446;5.404;2022-07-06T04:38:27;11.90;99.90
13049;DHT22;6591;51.446;5.404;2022-07-06T04:40:58;12.00;99.90
13049;DHT22;6591;51.446;5.404;2022-07-06T04:43:25;12.00;99.90
13049;DHT22;6591;51.446;5.404;2022-07-06T04:45:52;12.10;99.90
13049;DHT22;6591;51.446;5.404;2022-07-06T04:48:19;12.10;99.90
13049;DHT22;6591;51.446;5.404;2022-07-06T04:50:46;13.40;99.90
13049;DHT22;6591;51.446;5.404;2022-07-06T04:53:19;12.30;99.90
13049;DHT22;6591;51.446;5.404;2022-07-06T04:55:47;13.50;99.90
13049;DHT22;6591;51.446;5.404;2022-07-06T04:58:15;13.70;99.90
13049;DHT22;6591;51.446;5.404;2022-07-06T05:00:43;12.50;99.90
13049;DHT22;6591;51.446;5.404;2022-07-06T05:03:10;12.70;99.90
13049;DHT22;6591;51.446;5.404;2022-07-06T05:05:38;12.80;99.90
13049;DHT22;6591;51.446;5.404;2022-07-06T05:08:05;12.90;99.90
13049;DHT22;6591;51.446;5.404;2022-07-06T05:10:33;13.10;99.90
13049;DHT22;6591;51.446;5.404;2022-07-06T05:13:00;13.10;99.90
13049;DHT22;6591;51.446;5.404;2022-07-06T05:15:27;14.10;99.90
13049;DHT22;6591;51.446;5.404;2022-07-06T05:17:55;13.50;99.90
13049;DHT22;6591;51.446;5.404;2022-07-06T05:20:22;14.20;99.90
13049;DHT22;6591;51.446;5.404;2022-07-06T05:22:49;13.70;99.90
13049;DHT22;6591;51.446;5.404;2022-07-06T05:25:21;13.90;99.90
13049;DHT22;6591;51.446;5.404;2022-07-06T05:27:49;14.10;99.90
13049;DHT22;6591;51.446;5.404;2022-07-06T05:30:16;14.30;99.90
13049;DHT22;6591;51.446;5.404;2022-07-06T05:32:45;14.50;99.90
13049;DHT22;6591;51.446;5.404;2022-07-06T05:35:12;15.80;99.90
13049;DHT22;6591;51.446;5.404;2022-07-06T05:38:02;14.80;99.90
13049;DHT22;6591;51.446;5.404;2022-07-06T05:40:30;15.00;99.90
13049;DHT22;6591;51.446;5.404;2022-07-06T05:42:57;16.10;99.90
13049;DHT22;6591;51.446;5.404;2022-07-06T05:45:24;15.40;99.90
13049;DHT22;6591;51.446;5.404;2022-07-06T05:47:52;17.10;99.90
13049;DHT22;6591;51.446;5.404;2022-07-06T05:50:39;16.60;99.90
13049;DHT22;6591;51.446;5.404;2022-07-06T05:53:07;17.20;99.90
13049;DHT22;6591;51.446;5.404;2022-07-06T05:55:47;17.00;99.90
13049;DHT22;6591;51.446;5.404;2022-07-06T05:58:15;16.30;99.90
13049;DHT22;6591;51.446;5.404;2022-07-06T06:00:44;18.60;99.90
13049;DHT22;6591;51.446;5.404;2022-07-06T06:03:16;18.10;99.90
13049;DHT22;6591;51.446;5.404;2022-07-06T06:05:46;17.70;99.90
13049;DHT22;6591;51.446;5.404;2022-07-06T06:08:16;17.10;99.90
13049;DHT22;6591;51.446;5.404;2022-07-06T06:10:46;17.30;99.90
13049;DHT22;6591;51.446;5.404;2022-07-06T06:13:16;17.50;99.90
13049;DHT22;6591;51.446;5.404;2022-07-06T06:15:45;17.70;99.90
13049;DHT22;6591;51.446;5.404;2022-07-06T06:18:14;17.80;99.90
13049;DHT22;6591;51.446;5.404;2022-07-06T06:20:45;19.30;99.90
13049;DHT22;6591;51.446;5.404;2022-07-06T06:23:13;19.30;99.90
13049;DHT22;6591;51.446;5.404;2022-07-06T06:25:40;18.20;99.40
13049;DHT22;6591;51.446;5.404;2022-07-06T06:28:11;18.40;99.00
13049;DHT22;6591;51.446;5.404;2022-07-06T06:30:39;18.50;98.70
13049;DHT22;6591;51.446;5.404;2022-07-06T06:33:14;20.20;98.90
13049;DHT22;6591;51.446;5.404;2022-07-06T06:35:44;19.90;98.50
13049;DHT22;6591;51.446;5.404;2022-07-06T06:38:13;18.80;98.00
13049;DHT22;6591;51.446;5.404;2022-07-06T06:40:41;19.80;98.10
13049;DHT22;6591;51.446;5.404;2022-07-06T06:43:09;18.90;97.60
13049;DHT22;6591;51.446;5.404;2022-07-06T06:45:44;19.00;97.30
13049;DHT22;6591;51.446;5.404;2022-07-06T06:48:13;19.10;97.10
13049;DHT22;6591;51.446;5.404;2022-07-06T06:50:44;19.20;96.90
13049;DHT22;6591;51.446;5.404;2022-07-06T06:53:11;20.20;97.20
13049;DHT22;6591;51.446;5.404;2022-07-06T06:55:39;19.30;96.80
13049;DHT22;6591;51.446;5.404;2022-07-06T06:58:06;19.50;96.40
13049;DHT22;6591;51.446;5.404;2022-07-06T07:00:33;19.70;96.00
13049;DHT22;6591;51.446;5.404;2022-07-06T07:03:00;19.70;95.80
13049;DHT22;6591;51.446;5.404;2022-07-06T07:05:27;20.10;95.30
13049;DHT22;6591;51.446;5.404;2022-07-06T07:07:54;19.90;95.00
13049;DHT22;6591;51.446;5.404;2022-07-06T07:10:31;20.00;94.80
13049;DHT22;6591;51.446;5.404;2022-07-06T07:12:59;20.10;94.60
13049;DHT22;6591;51.446;5.404;2022-07-06T07:15:28;20.30;94.80
13049;DHT22;6591;51.446;5.404;2022-07-06T07:17:55;21.20;93.60
13049;DHT22;6591;51.446;5.404;2022-07-06T07:20:22;20.50;92.80
13049;DHT22;6591;51.446;5.404;2022-07-06T07:22:50;21.00;92.20
13049;DHT22;6591;51.446;5.404;2022-07-06T07:25:17;20.50;91.80
13049;DHT22;6591;51.446;5.404;2022-07-06T07:27:44;21.70;92.40
13049;DHT22;6591;51.446;5.404;2022-07-06T07:30:12;21.80;91.80
13049;DHT22;6591;51.446;5.404;2022-07-06T07:32:39;20.70;91.70
13049;DHT22;6591;51.446;5.404;2022-07-06T07:35:09;20.80;91.40
13049;DHT22;6591;51.446;5.404;2022-07-06T07:37:36;21.00;91.10
13049;DHT22;6591;51.446;5.404;2022-07-06T07:40:04;21.10;90.50
13049;DHT22;6591;51.446;5.404;2022-07-06T07:42:33;21.20;89.00
13049;DHT22;6591;51.446;5.404;2022-07-06T07:45:00;21.30;88.00
13049;DHT22;6591;51.446;5.404;2022-07-06T07:47:29;20.70;88.20
13049;DHT22;6591;51.446;5.404;2022-07-06T07:49:59;21.80;83.90
13049;DHT22;6591;51.446;5.404;2022-07-06T07:52:26;21.60;84.30
13049;DHT22;6591;51.446;5.404;2022-07-06T07:54:55;22.80;86.00
13049;DHT22;6591;51.446;5.404;2022-07-06T07:57:42;21.70;83.30
13049;DHT22;6591;51.446;5.404;2022-07-06T08:00:09;22.00;82.30
13049;DHT22;6591;51.446;5.404;2022-07-06T08:02:37;21.90;82.40
13049;DHT22;6591;51.446;5.404;2022-07-06T08:05:05;22.00;81.10
13049;DHT22;6591;51.446;5.404;2022-07-06T08:07:32;22.00;81.70
13049;DHT22;6591;51.446;5.404;2022-07-06T08:09:59;23.00;81.00
13049;DHT22;6591;51.446;5.404;2022-07-06T08:12:29;22.20;81.60
13049;DHT22;6591;51.446;5.404;2022-07-06T08:14:56;22.50;81.20
13049;DHT22;6591;51.446;5.404;2022-07-06T08:17:23;22.40;81.70
13049;DHT22;6591;51.446;5.404;2022-07-06T08:19:51;22.50;81.20
13049;DHT22;6591;51.446;5.404;2022-07-06T08:22:18;22.70;78.60
13049;DHT22;6591;51.446;5.404;2022-07-06T08:24:45;22.90;78.90
13049;DHT22;6591;51.446;5.404;2022-07-06T08:27:12;23.00;78.30
13049;DHT22;6591;51.446;5.404;2022-07-06T08:29:39;23.10;76.40
13049;DHT22;6591;51.446;5.404;2022-07-06T08:32:06;23.20;76.60
13049;DHT22;6591;51.446;5.404;2022-07-06T08:34:48;24.30;76.90
13049;DHT22;6591;51.446;5.404;2022-07-06T08:37:15;23.40;78.30
13049;DHT22;6591;51.446;5.404;2022-07-06T08:39:42;23.50;75.30
13049;DHT22;6591;51.446;5.404;2022-07-06T08:42:09;25.50;77.30
13049;DHT22;6591;51.446;5.404;2022-07-06T08:44:38;23.80;76.20
13049;DHT22;6591;51.446;5.404;2022-07-06T08:47:06;23.90;76.30
13049;DHT22;6591;51.446;5.404;2022-07-06T08:49:38;24.70;76.80
13049;DHT22;6591;51.446;5.404;2022-07-06T08:52:05;25.00;77.20
13049;DHT22;6591;51.446;5.404;2022-07-06T08:54:34;26.00;78.00
13049;DHT22;6591;51.446;5.404;2022-07-06T08:57:02;24.60;75.10
13049;DHT22;6591;51.446;5.404;2022-07-06T08:59:30;24.40;75.70
13049;DHT22;6591;51.446;5.404;2022-07-06T09:02:03;24.40;75.30
13049;DHT22;6591;51.446;5.404;2022-07-06T09:04:32;25.50;75.30
13049;DHT22;6591;51.446;5.404;2022-07-06T09:07:02;24.00;74.20
13049;DHT22;6591;51.446;5.404;2022-07-06T09:09:30;24.60;74.60
13049;DHT22;6591;51.446;5.404;2022-07-06T09:12:00;24.70;73.70
13049;DHT22;6591;51.446;5.404;2022-07-06T09:14:30;24.60;72.30
13049;DHT22;6591;51.446;5.404;2022-07-06T09:17:05;24.60;72.40
13049;DHT22;6591;51.446;5.404;2022-07-06T09:19:45;24.50;72.00
13049;DHT22;6591;51.446;5.404;2022-07-06T09:22:28;26.10;72.40
13049;DHT22;6591;51.446;5.404;2022-07-06T09:25:05;24.80;70.50
13049;DHT22;6591;51.446;5.404;2022-07-06T09:27:39;25.20;70.90
13049;DHT22;6591;51.446;5.404;2022-07-06T09:30:10;25.10;70.70
13049;DHT22;6591;51.446;5.404;2022-07-06T09:32:43;25.30;71.80
13049;DHT22;6591;51.446;5.404;2022-07-06T09:35:31;25.50;71.50
13049;DHT22;6591;51.446;5.404;2022-07-06T09:38:08;25.90;70.30
13049;DHT22;6591;51.446;5.404;2022-07-06T09:40:43;26.20;71.40
13049;DHT22;6591;51.446;5.404;2022-07-06T09:43:18;26.50;70.30
13049;DHT22;6591;51.446;5.404;2022-07-06T09:45:54;26.80;69.40
13049;DHT22;6591;51.446;5.404;2022-07-06T09:48:24;27.50;69.50
13049;DHT22;6591;51.446;5.404;2022-07-06T09:50:58;27.30;67.50
13049;DHT22;6591;51.446;5.404;2022-07-06T09:53:26;27.50;66.90
13049;DHT22;6591;51.446;5.404;2022-07-06T09:55:56;27.60;65.90
13049;DHT22;6591;51.446;5.404;2022-07-06T09:58:28;27.80;65.70
13049;DHT22;6591;51.446;5.404;2022-07-06T10:01:26;27.50;64.60
13049;DHT22;6591;51.446;5.404;2022-07-06T10:03:58;27.50;62.90
13049;DHT22;6591;51.446;5.404;2022-07-06T10:06:26;27.40;63.90
13049;DHT22;6591;51.446;5.404;2022-07-06T10:08:57;27.80;64.30
13049;DHT22;6591;51.446;5.404;2022-07-06T10:11:26;28.10;63.50
13049;DHT22;6591;51.446;5.404;2022-07-06T10:13:56;27.10;62.00
13049;DHT22;6591;51.446;5.404;2022-07-06T10:16:24;27.00;61.40
13049;DHT22;6591;51.446;5.404;2022-07-06T10:18:53;27.00;61.50
13049;DHT22;6591;51.446;5.404;2022-07-06T10:21:23;26.90;61.40
13049;DHT22;6591;51.446;5.404;2022-07-06T10:23:52;27.00;61.50
13049;DHT22;6591;51.446;5.404;2022-07-06T10:26:21;29.10;63.00
13049;DHT22;6591;51.446;5.404;2022-07-06T10:28:51;27.90;61.20
13049;DHT22;6591;51.446;5.404;2022-07-06T10:31:19;27.10;60.10
13049;DHT22;6591;51.446;5.404;2022-07-06T10:33:47;28.20;61.00
13049;DHT22;6591;51.446;5.404;2022-07-06T10:36:15;27.20;60.10
13049;DHT22;6591;51.446;5.404;2022-07-06T10:38:48;27.10;59.30
13049;DHT22;6591;51.446;5.404;2022-07-06T10:41:17;27.10;58.50
13049;DHT22;6591;51.446;5.404;2022-07-06T10:43:46;27.10;58.70
13049;DHT22;6591;51.446;5.404;2022-07-06T10:46:17;27.00;57.80
13049;DHT22;6591;51.446;5.404;2022-07-06T10:48:48;26.90;57.80
13049;DHT22;6591;51.446;5.404;2022-07-06T10:51:24;26.90;58.10
13049;DHT22;6591;51.446;5.404;2022-07-06T10:54:00;26.80;57.30
13049;DHT22;6591;51.446;5.404;2022-07-06T10:56:40;26.80;57.80
13049;DHT22;6591;51.446;5.404;2022-07-06T10:59:21;26.80;57.80
13049;DHT22;6591;51.446;5.404;2022-07-06T11:02:14;26.90;57.80
13049;DHT22;6591;51.446;5.404;2022-07-06T11:04:44;27.00;57.60
13049;DHT22;6591;51.446;5.404;2022-07-06T11:07:17;27.00;58.60
13049;DHT22;6591;51.446;5.404;2022-07-06T11:09:59;27.20;58.00
13049;DHT22;6591;51.446;5.404;2022-07-06T11:12:26;27.80;56.30
13049;DHT22;6591;51.446;5.404;2022-07-06T11:14:56;27.90;57.20
13049;DHT22;6591;51.446;5.404;2022-07-06T11:17:28;27.40;57.10
13049;DHT22;6591;51.446;5.404;2022-07-06T11:19:58;27.40;57.00
13049;DHT22;6591;51.446;5.404;2022-07-06T11:22:38;27.40;56.40
13049;DHT22;6591;51.446;5.404;2022-07-06T11:25:06;27.50;54.90
13049;DHT22;6591;51.446;5.404;2022-07-06T11:27:36;27.50;55.30
13049;DHT22;6591;51.446;5.404;2022-07-06T11:30:05;27.40;53.80
13049;DHT22;6591;51.446;5.404;2022-07-06T11:32:35;27.40;54.50
13049;DHT22;6591;51.446;5.404;2022-07-06T11:35:02;27.40;55.00
13049;DHT22;6591;51.446;5.404;2022-07-06T11:37:29;27.50;55.70
13049;DHT22;6591;51.446;5.404;2022-07-06T11:40:06;27.70;55.80
13049;DHT22;6591;51.446;5.404;2022-07-06T11:42:34;28.10;55.70
13049;DHT22;6591;51.446;5.404;2022-07-06T11:45:02;28.40;56.00
13049;DHT22;6591;51.446;5.404;2022-07-06T11:47:31;28.70;55.50
13049;DHT22;6591;51.446;5.404;2022-07-06T11:49:58;28.90;54.60
13049;DHT22;6591;51.446;5.404;2022-07-06T11:52:25;29.20;54.60
13049;DHT22;6591;51.446;5.404;2022-07-06T11:54:58;29.40;54.40
13049;DHT22;6591;51.446;5.404;2022-07-06T11:57:32;29.60;54.00
13049;DHT22;6591;51.446;5.404;2022-07-06T11:59:59;29.80;53.00
13049;DHT22;6591;51.446;5.404;2022-07-06T12:02:26;30.00;52.50
13049;DHT22;6591;51.446;5.404;2022-07-06T12:04:53;30.10;52.30
13049;DHT22;6591;51.446;5.404;2022-07-06T12:07:20;30.30;51.90
13049;DHT22;6591;51.446;5.404;2022-07-06T12:09:48;30.40;51.50
13049;DHT22;6591;51.446;5.404;2022-07-06T12:12:15;30.50;50.60
13049;DHT22;6591;51.446;5.404;2022-07-06T12:14:43;30.40;50.70
13049;DHT22;6591;51.446;5.404;2022-07-06T12:17:15;30.60;51.00
13049;DHT22;6591;51.446;5.404;2022-07-06T12:19:43;31.40;51.50
13049;DHT22;6591;51.446;5.404;2022-07-06T12:22:11;31.00;51.10
13049;DHT22;6591;51.446;5.404;2022-07-06T12:24:42;31.10;50.50
13049;DHT22;6591;51.446;5.404;2022-07-06T12:27:13;31.30;50.00
13049;DHT22;6591;51.446;5.404;2022-07-06T12:29:45;31.50;50.60
13049;DHT22;6591;51.446;5.404;2022-07-06T12:32:18;31.80;50.60
13049;DHT22;6591;51.446;5.404;2022-07-06T12:35:06;32.20;50.20
13049;DHT22;6591;51.446;5.404;2022-07-06T12:37:34;32.70;48.90
13049;DHT22;6591;51.446;5.404;2022-07-06T12:40:13;32.90;48.60
13049;DHT22;6591;51.446;5.404;2022-07-06T12:42:47;33.10;48.30
13049;DHT22;6591;51.446;5.404;2022-07-06T12:45:16;33.20;47.60
13049;DHT22;6591;51.446;5.404;2022-07-06T12:50:36;33.80;46.80
13049;DHT22;6591;51.446;5.404;2022-07-06T12:53:06;34.10;46.70
13049;DHT22;6591;51.446;5.404;2022-07-06T12:56:10;34.30;46.90
13049;DHT22;6591;51.446;5.404;2022-07-06T12:58:38;34.50;45.00
13049;DHT22;6591;51.446;5.404;2022-07-06T13:01:06;35.30;45.80
13049;DHT22;6591;51.446;5.404;2022-07-06T13:03:39;34.60;44.20
13049;DHT22;6591;51.446;5.404;2022-07-06T13:06:07;34.50;44.20
13049;DHT22;6591;51.446;5.404;2022-07-06T13:08:34;34.40;43.60
13049;DHT22;6591;51.446;5.404;2022-07-06T13:11:01;34.30;43.60
13049;DHT22;6591;51.446;5.404;2022-07-06T13:13:42;36.00;44.20
13049;DHT22;6591;51.446;5.404;2022-07-06T13:16:09;34.20;42.80
13049;DHT22;6591;51.446;5.404;2022-07-06T13:18:36;34.10;42.80
13049;DHT22;6591;51.446;5.404;2022-07-06T13:21:03;34.00;42.90
13049;DHT22;6591;51.446;5.404;2022-07-06T13:23:30;35.30;43.70
13049;DHT22;6591;51.446;5.404;2022-07-06T13:26:04;33.70;42.10
13049;DHT22;6591;51.446;5.404;2022-07-06T13:28:32;33.50;41.10
13049;DHT22;6591;51.446;5.404;2022-07-06T13:30:59;34.20;42.20
13049;DHT22;6591;51.446;5.404;2022-07-06T13:33:26;33.10;41.90
13049;DHT22;6591;51.446;5.404;2022-07-06T13:35:54;34.60;43.40
13049;DHT22;6591;51.446;5.404;2022-07-06T13:38:21;32.90;42.80
13049;DHT22;6591;51.446;5.404;2022-07-06T13:40:48;32.90;43.10
13049;DHT22;6591;51.446;5.404;2022-07-06T13:43:15;32.90;43.40
13049;DHT22;6591;51.446;5.404;2022-07-06T13:45:42;32.90;43.00
13049;DHT22;6591;51.446;5.404;2022-07-06T13:48:10;33.00;43.00
13049;DHT22;6591;51.446;5.404;2022-07-06T13:50:37;33.00;43.10
13049;DHT22;6591;51.446;5.404;2022-07-06T13:53:04;32.90;43.40
13049;DHT22;6591;51.446;5.404;2022-07-06T13:55:32;33.10;43.40
13049;DHT22;6591;51.446;5.404;2022-07-06T13:57:59;33.20;43.00
13049;DHT22;6591;51.446;5.404;2022-07-06T14:00:26;33.30;42.20
13049;DHT22;6591;51.446;5.404;2022-07-06T14:02:54;33.30;42.20
13049;DHT22;6591;51.446;5.404;2022-07-06T14:05:21;33.50;42.40
13049;DHT22;6591;51.446;5.404;2022-07-06T14:07:48;34.70;43.20
13049;DHT22;6591;51.446;5.404;2022-07-06T14:10:16;34.30;43.30
13049;DHT22;6591;51.446;5.404;2022-07-06T14:12:43;32.60;41.80
13049;DHT22;6591;51.446;5.404;2022-07-06T14:15:10;33.80;42.60
13049;DHT22;6591;51.446;5.404;2022-07-06T14:17:38;33.90;42.30
13049;DHT22;6591;51.446;5.404;2022-07-06T14:20:06;34.10;42.50
13049;DHT22;6591;51.446;5.404;2022-07-06T14:22:36;34.20;41.90
13049;DHT22;6591;51.446;5.404;2022-07-06T14:25:04;34.20;41.20
13049;DHT22;6591;51.446;5.404;2022-07-06T14:27:33;34.10;41.00
13049;DHT22;6591;51.446;5.404;2022-07-06T14:30:01;33.90;41.50
13049;DHT22;6591;51.446;5.404;2022-07-06T14:32:34;33.70;41.80
13049;DHT22;6591;51.446;5.404;2022-07-06T14:35:01;33.70;41.70
13049;DHT22;6591;51.446;5.404;2022-07-06T14:37:29;33.80;42.10
13049;DHT22;6591;51.446;5.404;2022-07-06T14:39:59;34.90;42.80
13049;DHT22;6591;51.446;5.404;2022-07-06T14:42:26;33.90;41.90
13049;DHT22;6591;51.446;5.404;2022-07-06T14:44:53;33.90;41.70
13049;DHT22;6591;51.446;5.404;2022-07-06T14:47:20;33.90;41.20
13049;DHT22;6591;51.446;5.404;2022-07-06T14:49:47;33.80;41.60
13049;DHT22;6591;51.446;5.404;2022-07-06T14:52:14;33.70;41.40
13049;DHT22;6591;51.446;5.404;2022-07-06T14:54:41;33.50;41.40
13049;DHT22;6591;51.446;5.404;2022-07-06T14:57:08;33.30;41.20
13049;DHT22;6591;51.446;5.404;2022-07-06T14:59:35;33.10;41.30
13049;DHT22;6591;51.446;5.404;2022-07-06T15:02:03;32.80;41.70
13049;DHT22;6591;51.446;5.404;2022-07-06T15:04:33;32.00;41.20
13049;DHT22;6591;51.446;5.404;2022-07-06T15:07:01;32.30;41.90
13049;DHT22;6591;51.446;5.404;2022-07-06T15:09:30;32.00;42.20
13049;DHT22;6591;51.446;5.404;2022-07-06T15:12:00;31.90;42.30
13049;DHT22;6591;51.446;5.404;2022-07-06T15:14:29;31.70;42.80
13049;DHT22;6591;51.446;5.404;2022-07-06T15:16:56;31.50;42.60
13049;DHT22;6591;51.446;5.404;2022-07-06T15:19:28;31.30;43.10
13049;DHT22;6591;51.446;5.404;2022-07-06T15:21:55;31.90;43.60
13049;DHT22;6591;51.446;5.404;2022-07-06T15:24:22;33.00;44.60
13049;DHT22;6591;51.446;5.404;2022-07-06T15:26:51;30.80;43.40
13049;DHT22;6591;51.446;5.404;2022-07-06T15:29:18;32.10;44.70
13049;DHT22;6591;51.446;5.404;2022-07-06T15:31:45;30.50;44.00
13049;DHT22;6591;51.446;5.404;2022-07-06T15:34:13;30.30;44.30
13049;DHT22;6591;51.446;5.404;2022-07-06T15:36:40;30.30;44.60
13049;DHT22;6591;51.446;5.404;2022-07-06T15:39:07;32.10;45.80
13049;DHT22;6591;51.446;5.404;2022-07-06T15:41:34;30.10;44.80
13049;DHT22;6591;51.446;5.404;2022-07-06T15:44:01;30.00;44.90
13049;DHT22;6591;51.446;5.404;2022-07-06T15:46:29;29.90;44.90
13049;DHT22;6591;51.446;5.404;2022-07-06T15:48:56;29.70;45.00
13049;DHT22;6591;51.446;5.404;2022-07-06T15:51:23;29.50;45.20
13049;DHT22;6591;51.446;5.404;2022-07-06T15:53:50;30.70;46.40
13049;DHT22;6591;51.446;5.404;2022-07-06T15:56:17;30.50;46.50
13049;DHT22;6591;51.446;5.404;2022-07-06T15:58:44;29.00;46.10
13049;DHT22;6591;51.446;5.404;2022-07-06T16:01:11;28.90;46.20